Flight Track Log - Related Links

Times and Time Zones

All times are in EDT time to prevent confusion due to time zone crossing. See the XOJ549 flight status page for this flight to view local times or setup timezone preferences in your user account.

Time Position Orientation Groundspeed Altitude Reporting Facility
EDT Latitude Longitude Course Direction KTS MPH feet Rate Location/Type
Mon 06:55:26 PM 40.8167 -74.1500 226° Southwest 182 209 1,600  Level New York TRACON
Mon 06:56:26 PM 40.8000 -74.2000 246° West 183 211 3,800 2,000 Climbing New York TRACON
Mon 06:57:26 PM 40.7333 -74.2167 191° South 249 287 5,600 1,211 Climbing New York TRACON
Mon 06:58:20 PM 40.6667 -74.2500 201° Southwest 281 323 6,100 250 Climbing New York TRACON
Mon 06:59:26 PM 40.5833 -74.2667 189° South 283 326 6,100 -50 Level New York TRACON
Mon 07:00:00 PM 40.3605 -74.7231 226° Southwest  Level Estimated
Mon 07:00:20 PM 40.5000 -74.2500 171° South 285 328 6,000  Level New York TRACON
Mon 07:02:00 PM 40.3105 -74.1900 166° South  Level FlightAware Approximate
Mon 07:09:00 PM 39.5972 -74.6194 218° Southwest  Level FlightAware Approximate
Mon 07:09:43 PM 39.8453 -74.4078 237° Southwest 273 314 6,000  Level Washington Center
Mon 07:10:00 PM 39.5046 -74.7121 218° Southwest  Level FlightAware Approximate
Mon 07:11:00 PM 39.4099 -74.8010 216° Southwest  Level FlightAware Approximate
Mon 07:11:00 PM 39.7173 -74.5098 212° Southwest  Level FlightAware Approximate
Mon 07:12:00 PM 39.3151 -74.8895 216° Southwest  Level FlightAware Approximate
Mon 07:13:00 PM 39.2286 -74.9886 234° Southwest  Level FlightAware Approximate
Mon 07:14:00 PM 39.1609 -75.1117 237° Southwest  Level FlightAware Approximate
Mon 07:14:08 PM 39.5808 -74.6600 237° Southwest 269 310 6,000  Level Washington Center
Mon 07:15:00 PM 39.0975 -75.2384 237° Southwest  Level FlightAware Approximate
Mon 07:16:00 PM 39.4456 -74.8822 216° Southwest  Level Estimated
Mon 07:18:00 PM 39.2051 -75.3372 237° Southwest  Level Estimated
Mon 07:18:08 PM 39.3364 -74.8858 236° Southwest 270 311 6,000  Level Washington Center
Mon 07:19:00 PM 39.1314 -75.4544 237° Southwest  Level Estimated
Mon 07:20:00 PM 39.2035 -75.1097 237° Southwest  Level Estimated
Mon 07:23:00 PM 38.8921 -75.6404 236° Southwest  Level FlightAware Approximate
Mon 07:26:48 PM 38.9500 -75.5500 225° Southwest 262 302 6,000  Level Potomac TRACON
Mon 07:27:00 PM 38.7016 -75.9415 218° Southwest  Level Estimated
Mon 07:27:19 PM 38.9300 -75.5864 235° Southwest 272 313 6,000  Level Washington Center
Mon 07:28:00 PM 38.6295 -76.0594 218° Southwest  Level Estimated
Mon 07:28:20 PM 38.8861 -75.6664 235° Southwest 270 311 6,000  Level Washington Center
Mon 07:29:00 PM 38.5572 -76.1770 210° Southwest  Level Estimated
Mon 07:29:27 PM 38.8403 -75.7517 235° Southwest 255 293 6,000  Level Washington Center
Mon 07:30:00 PM 38.4847 -76.2944 218° Southwest  Level Estimated
Mon 07:30:28 PM 38.8047 -75.8233 238° Southwest 246 283 6,000  Level Washington Center
Mon 07:31:00 PM 38.3766 -76.3512 202° Southwest  Level FlightAware Approximate
Mon 07:31:30 PM 38.7628 -75.9006 235° Southwest 259 298 6,000  Level Washington Center
Mon 07:32:00 PM 38.3054 -76.4696 225° Southwest  Level Estimated
Mon 07:32:30 PM 38.7189 -75.9828 236° Southwest 268 308 6,000  Level Washington Center
Mon 07:33:31 PM 38.6686 -76.0489 226° Southwest 259 298 6,000  Level Washington Center
Mon 07:34:31 PM 38.6142 -76.1019 217° Southwest 257 296 6,000  Level Washington Center
Mon 07:35:29 PM 38.5556 -76.1544 215° Southwest 257 296 6,000  Level Washington Center
Mon 07:36:30 PM 38.4928 -76.2125 216° Southwest 260 299 6,000  Level Washington Center
Mon 07:37:31 PM 38.4339 -76.2675 216° Southwest 261 300 6,000  Level Washington Center
Mon 07:38:26 PM 38.3794 -76.3175 216° Southwest 263 303 6,000  Level Washington Center
Mon 07:39:27 PM 38.3186 -76.3697 214° Southwest 266 306 6,000  Level Washington Center
Mon 07:40:27 PM 38.2642 -76.4381 225° Southwest 280 322 6,000  Level Washington Center
Mon 07:41:22 PM 38.2178 -76.5008 227° Southwest 264 304 6,000  Level Washington Center
Mon 07:43:00 PM 38.1484 -76.5779 221° Southwest  Level FlightAware Approximate
Mon 07:43:55 PM 38.0833 -76.6833 221° Southwest 271 312 6,000  Level Potomac TRACON
Mon 07:44:55 PM 38.0333 -76.7500 226° Southwest 268 308 6,000  Level Potomac TRACON
Mon 07:45:55 PM 37.9833 -76.8167 226° Southwest 272 313 6,000  Level Potomac TRACON
Mon 07:46:55 PM 37.9333 -76.8833 226° Southwest 266 306 6,000 250 Level Potomac TRACON
Mon 07:47:55 PM 37.9000 -76.9667 243° Southwest 268 308 6,500 1,161 Climbing Potomac TRACON
Mon 07:48:28 PM 37.8728 -77.0097 231° Southwest 274 315 7,800 1,596 Climbing Washington Center
Mon 07:49:29 PM 37.8281 -77.0903 235° Southwest 280 322 9,000 595 Climbing Washington Center
Mon 07:50:29 PM 37.7936 -77.1817 245° Southwest 280 322 9,000  Level Washington Center
Mon 07:51:27 PM 37.7592 -77.2650 242° Southwest 280 322 9,000 807 Level Washington Center
Mon 07:52:28 PM 37.7142 -77.3506 236° Southwest 285 328 10,600 1,785 Climbing Washington Center
Mon 07:53:28 PM 37.6586 -77.4386 231° Southwest 304 350 12,600 2,168 Climbing Washington Center
Mon 07:54:27 PM 37.6006 -77.5367 233° Southwest 321 369 14,900 2,950 Climbing Washington Center
Mon 07:55:28 PM 37.5450 -77.6269 232° Southwest 359 413 18,500 2,508 Climbing Washington Center
Mon 07:56:29 PM 37.4825 -77.7325 233° Southwest 369 425 20,000 744 Climbing Washington Center
Mon 07:57:29 PM 37.4158 -77.8406 232° Southwest 386 444 20,000  Level Washington Center
Mon 07:58:27 PM 37.3469 -77.9508 232° Southwest 397 457 20,000  Level Washington Center
Mon 07:59:28 PM 37.2822 -78.0611 234° Southwest 402 463 20,000  Level Washington Center
Mon 08:00:29 PM 37.2089 -78.1814 233° Southwest 407 468 20,000  Level Washington Center
Mon 08:01:39 PM 37.1331 -78.3011 232° Southwest 407 468 20,000  Level Washington Center
Mon 08:02:40 PM 37.0639 -78.4133 232° Southwest 402 463 20,000  Level Washington Center
Mon 08:03:41 PM 36.9986 -78.5228 233° Southwest 402 463 20,000  Level Washington Center
Mon 08:04:39 PM 36.9314 -78.6294 232° Southwest 402 463 20,000  Level Washington Center
Mon 08:05:39 PM 36.8550 -78.7508 232° Southwest 407 468 20,000  Level Washington Center
Mon 08:06:40 PM 36.7853 -78.8622 232° Southwest 407 468 20,000  Level Washington Center
Mon 08:07:41 PM 36.7178 -78.9681 232° Southwest 407 468 20,000 -50 Level Washington Center
Mon 08:08:41 PM 36.6606 -79.0719 236° Southwest 402 463 19,900 -1,109 Descending Washington Center
Mon 08:09:40 PM 36.5950 -79.1672 229° Southwest 397 457 17,800 -2,136 Descending Washington Center
Mon 08:11:00 PM 36.5286 -79.2635 233° Southwest  Level FlightAware Approximate
Mon 08:18:00 PM 36.1811 -79.7974 227° Southwest  Level FlightAware Approximate
Mon 08:19:00 PM 36.1318 -79.8748 233° Southwest  Level FlightAware Approximate
Mon 08:20:00 PM 36.1000 -79.9333 238° Southwest  Level FlightAware Approximate
Mon 08:21:00 PM 36.1013 -79.9411 238° Southwest  Level Estimated
Mon 08:22:00 PM 36.1000 -79.9333 238° Southwest  Level FlightAware Approximate
Mon 08:23:00 PM 36.1013 -79.9411 238° Southwest  Level Estimated
Mon 08:24:00 PM 36.1000 -79.9333 238° Southwest  Level FlightAware Approximate
Mon 08:25:00 PM 36.1013 -79.9411 238° Southwest  Level Estimated
Mon 08:26:00 PM 36.1000 -79.9333 238° Southwest  Level FlightAware Approximate

Login

Don't have an account? Register now (free) for customized features, flight alerts, and more!